Terminal Aerodrome Forecast
Issued by NWS

Current Version | Previous Version | Text Only | Print | Product List | Glossary Off
Versions: 1 2 3 4 5 6 7 8 9 10 11 12 13 14 15 16 17 18 19

580
FTUS41 KILN 091132
TAFLCK
TAF
KLCK 091132Z 0912/1012 26011KT P6SM -SN OVC025
     FM100100 26004KT P6SM SCT025
      AMD NOT SKED=

USA.gov is the U.S. government's official web portal to all federal, state and local government web resources and services.